sensor_id;sensor_type;location;lat;lon;timestamp;temperature;humidity
13322;DHT22;6730;46.248;6.930;2024-03-23T00:55:41;12.30;99.40
13322;DHT22;6730;46.248;6.930;2024-03-23T00:58:06;12.30;99.60
13322;DHT22;6730;46.248;6.930;2024-03-23T01:00:32;12.10;99.80
13322;DHT22;6730;46.248;6.930;2024-03-23T01:02:58;12.00;99.90
13322;DHT22;6730;46.248;6.930;2024-03-23T01:05:24;11.80;99.90
13322;DHT22;6730;46.248;6.930;2024-03-23T01:07:49;11.70;99.90
13322;DHT22;6730;46.248;6.930;2024-03-23T01:10:15;11.70;99.90
13322;DHT22;6730;46.248;6.930;2024-03-23T01:12:41;11.80;99.90
13322;DHT22;6730;46.248;6.930;2024-03-23T01:15:07;11.80;99.90
13322;DHT22;6730;46.248;6.930;2024-03-23T01:17:32;11.90;99.90
13322;DHT22;6730;46.248;6.930;2024-03-23T01:19:58;12.00;99.90
13322;DHT22;6730;46.248;6.930;2024-03-23T01:22:24;11.90;99.90
13322;DHT22;6730;46.248;6.930;2024-03-23T01:24:49;11.90;99.90
13322;DHT22;6730;46.248;6.930;2024-03-23T01:27:15;11.90;99.90
13322;DHT22;6730;46.248;6.930;2024-03-23T01:29:40;11.80;99.90
13322;DHT22;6730;46.248;6.930;2024-03-23T01:32:06;11.80;99.90
13322;DHT22;6730;46.248;6.930;2024-03-23T01:34:32;11.80;99.90
13322;DHT22;6730;46.248;6.930;2024-03-23T01:36:58;11.80;99.90
13322;DHT22;6730;46.248;6.930;2024-03-23T01:39:24;11.90;99.80
13322;DHT22;6730;46.248;6.930;2024-03-23T01:41:50;12.10;99.80
13322;DHT22;6730;46.248;6.930;2024-03-23T01:44:17;12.20;99.90
13322;DHT22;6730;46.248;6.930;2024-03-23T01:46:43;12.00;99.90
13322;DHT22;6730;46.248;6.930;2024-03-23T01:49:09;11.80;99.90
13322;DHT22;6730;46.248;6.930;2024-03-23T01:51:36;11.90;99.90
13322;DHT22;6730;46.248;6.930;2024-03-23T01:54:03;12.00;99.90
13322;DHT22;6730;46.248;6.930;2024-03-23T01:56:33;12.00;99.90
13322;DHT22;6730;46.248;6.930;2024-03-23T01:59:06;12.20;99.90
13322;DHT22;6730;46.248;6.930;2024-03-23T02:01:35;12.10;99.90
13322;DHT22;6730;46.248;6.930;2024-03-23T02:04:03;12.10;99.90
13322;DHT22;6730;46.248;6.930;2024-03-23T02:06:29;12.00;99.90
13322;DHT22;6730;46.248;6.930;2024-03-23T02:08:55;12.10;99.90
13322;DHT22;6730;46.248;6.930;2024-03-23T02:11:21;12.00;99.90
13322;DHT22;6730;46.248;6.930;2024-03-23T02:13:46;12.10;99.90
13322;DHT22;6730;46.248;6.930;2024-03-23T02:16:12;12.10;99.90
13322;DHT22;6730;46.248;6.930;2024-03-23T02:18:39;12.40;99.80
13322;DHT22;6730;46.248;6.930;2024-03-23T02:21:05;12.30;99.90
13322;DHT22;6730;46.248;6.930;2024-03-23T02:23:30;12.40;99.80
13322;DHT22;6730;46.248;6.930;2024-03-23T02:25:56;12.00;99.90
13322;DHT22;6730;46.248;6.930;2024-03-23T02:28:22;12.10;99.90
13322;DHT22;6730;46.248;6.930;2024-03-23T02:30:51;12.00;99.90
13322;DHT22;6730;46.248;6.930;2024-03-23T02:33:17;12.00;99.90
13322;DHT22;6730;46.248;6.930;2024-03-23T02:35:44;11.90;99.90
13322;DHT22;6730;46.248;6.930;2024-03-23T02:38:10;12.00;99.90
13322;DHT22;6730;46.248;6.930;2024-03-23T02:40:36;12.10;99.90
13322;DHT22;6730;46.248;6.930;2024-03-23T02:43:03;12.20;99.90
13322;DHT22;6730;46.248;6.930;2024-03-23T02:45:28;12.10;99.90
13322;DHT22;6730;46.248;6.930;2024-03-23T02:47:54;12.00;99.90
13322;DHT22;6730;46.248;6.930;2024-03-23T02:50:20;11.90;99.90
13322;DHT22;6730;46.248;6.930;2024-03-23T02:52:46;12.10;99.90
13322;DHT22;6730;46.248;6.930;2024-03-23T02:55:12;12.40;99.90
13322;DHT22;6730;46.248;6.930;2024-03-23T02:57:37;12.20;99.90
13322;DHT22;6730;46.248;6.930;2024-03-23T03:00:05;12.10;99.90
13322;DHT22;6730;46.248;6.930;2024-03-23T03:02:32;12.20;99.90
13322;DHT22;6730;46.248;6.930;2024-03-23T03:04:57;12.20;99.90
13322;DHT22;6730;46.248;6.930;2024-03-23T03:07:23;12.10;99.90
13322;DHT22;6730;46.248;6.930;2024-03-23T03:09:49;12.20;99.90
13322;DHT22;6730;46.248;6.930;2024-03-23T03:12:14;12.20;99.90
13322;DHT22;6730;46.248;6.930;2024-03-23T03:14:40;12.50;99.90
13322;DHT22;6730;46.248;6.930;2024-03-23T03:17:05;12.60;99.90
13322;DHT22;6730;46.248;6.930;2024-03-23T03:19:31;12.40;99.30
13322;DHT22;6730;46.248;6.930;2024-03-23T03:21:57;12.30;99.90
13322;DHT22;6730;46.248;6.930;2024-03-23T03:24:23;12.40;99.90
13322;DHT22;6730;46.248;6.930;2024-03-23T03:26:49;12.40;99.90
13322;DHT22;6730;46.248;6.930;2024-03-23T03:29:15;12.60;99.60
13322;DHT22;6730;46.248;6.930;2024-03-23T03:31:42;12.50;99.50
13322;DHT22;6730;46.248;6.930;2024-03-23T03:34:08;12.50;99.80
13322;DHT22;6730;46.248;6.930;2024-03-23T03:36:33;11.90;99.90
13322;DHT22;6730;46.248;6.930;2024-03-23T03:38:59;11.70;99.90
13322;DHT22;6730;46.248;6.930;2024-03-23T03:41:25;12.00;99.90
13322;DHT22;6730;46.248;6.930;2024-03-23T03:43:51;12.10;99.90
13322;DHT22;6730;46.248;6.930;2024-03-23T03:46:17;11.90;99.90
13322;DHT22;6730;46.248;6.930;2024-03-23T03:48:42;11.90;99.90
13322;DHT22;6730;46.248;6.930;2024-03-23T03:51:10;12.10;99.90
13322;DHT22;6730;46.248;6.930;2024-03-23T03:53:36;12.10;99.90
13322;DHT22;6730;46.248;6.930;2024-03-23T03:56:02;12.10;99.90
13322;DHT22;6730;46.248;6.930;2024-03-23T03:58:27;12.10;99.90
13322;DHT22;6730;46.248;6.930;2024-03-23T04:00:53;12.10;99.90
13322;DHT22;6730;46.248;6.930;2024-03-23T04:03:19;12.00;99.90
13322;DHT22;6730;46.248;6.930;2024-03-23T04:05:51;11.80;99.90
13322;DHT22;6730;46.248;6.930;2024-03-23T04:08:16;11.80;99.90
13322;DHT22;6730;46.248;6.930;2024-03-23T04:10:42;11.80;99.90
13322;DHT22;6730;46.248;6.930;2024-03-23T04:13:08;11.90;99.90
13322;DHT22;6730;46.248;6.930;2024-03-23T04:15:33;12.10;99.90
13322;DHT22;6730;46.248;6.930;2024-03-23T04:17:59;12.10;99.90
13322;DHT22;6730;46.248;6.930;2024-03-23T04:20:25;12.00;99.90
13322;DHT22;6730;46.248;6.930;2024-03-23T04:22:50;12.00;99.90
13322;DHT22;6730;46.248;6.930;2024-03-23T04:25:16;12.10;99.90
13322;DHT22;6730;46.248;6.930;2024-03-23T04:27:42;12.00;99.90
13322;DHT22;6730;46.248;6.930;2024-03-23T04:30:08;12.10;99.90
13322;DHT22;6730;46.248;6.930;2024-03-23T04:32:37;11.90;99.90
13322;DHT22;6730;46.248;6.930;2024-03-23T04:35:03;12.00;99.90
13322;DHT22;6730;46.248;6.930;2024-03-23T04:37:32;12.00;99.90
13322;DHT22;6730;46.248;6.930;2024-03-23T04:40:00;12.00;99.90
13322;DHT22;6730;46.248;6.930;2024-03-23T04:42:27;12.00;99.90
13322;DHT22;6730;46.248;6.930;2024-03-23T04:44:53;11.30;99.90
13322;DHT22;6730;46.248;6.930;2024-03-23T04:47:18;11.20;99.90
13322;DHT22;6730;46.248;6.930;2024-03-23T04:49:44;11.20;99.90
13322;DHT22;6730;46.248;6.930;2024-03-23T04:52:10;11.40;99.90
13322;DHT22;6730;46.248;6.930;2024-03-23T04:54:35;11.60;99.90
13322;DHT22;6730;46.248;6.930;2024-03-23T04:57:01;11.70;99.90
13322;DHT22;6730;46.248;6.930;2024-03-23T04:59:27;11.70;99.90
13322;DHT22;6730;46.248;6.930;2024-03-23T05:01:52;11.70;99.90
13322;DHT22;6730;46.248;6.930;2024-03-23T05:04:18;11.70;99.90
13322;DHT22;6730;46.248;6.930;2024-03-23T05:06:43;11.70;99.90
13322;DHT22;6730;46.248;6.930;2024-03-23T05:09:09;11.60;99.90
13322;DHT22;6730;46.248;6.930;2024-03-23T05:11:38;11.50;99.90
13322;DHT22;6730;46.248;6.930;2024-03-23T05:14:04;11.50;99.90
13322;DHT22;6730;46.248;6.930;2024-03-23T05:16:29;11.50;99.90
13322;DHT22;6730;46.248;6.930;2024-03-23T05:18:55;11.60;99.90
13322;DHT22;6730;46.248;6.930;2024-03-23T05:21:21;11.60;99.90
13322;DHT22;6730;46.248;6.930;2024-03-23T05:23:46;11.50;99.90
13322;DHT22;6730;46.248;6.930;2024-03-23T05:26:13;11.60;99.90
13322;DHT22;6730;46.248;6.930;2024-03-23T05:28:39;11.60;99.90
13322;DHT22;6730;46.248;6.930;2024-03-23T05:31:04;11.40;99.90
13322;DHT22;6730;46.248;6.930;2024-03-23T05:33:30;11.50;99.90
13322;DHT22;6730;46.248;6.930;2024-03-23T05:36:01;11.70;99.90
13322;DHT22;6730;46.248;6.930;2024-03-23T05:38:26;11.70;99.90
13322;DHT22;6730;46.248;6.930;2024-03-23T05:41:02;11.50;99.90
13322;DHT22;6730;46.248;6.930;2024-03-23T05:43:28;11.40;99.90
13322;DHT22;6730;46.248;6.930;2024-03-23T05:45:58;10.70;99.90
13322;DHT22;6730;46.248;6.930;2024-03-23T05:48:24;10.30;99.90
13322;DHT22;6730;46.248;6.930;2024-03-23T05:50:50;9.80;99.90
13322;DHT22;6730;46.248;6.930;2024-03-23T05:53:17;9.90;99.90
13322;DHT22;6730;46.248;6.930;2024-03-23T05:55:43;9.90;99.90
13322;DHT22;6730;46.248;6.930;2024-03-23T05:58:09;10.20;99.90
13322;DHT22;6730;46.248;6.930;2024-03-23T06:00:35;10.20;99.90
13322;DHT22;6730;46.248;6.930;2024-03-23T06:03:01;10.40;99.90
13322;DHT22;6730;46.248;6.930;2024-03-23T06:05:27;10.30;99.90
13322;DHT22;6730;46.248;6.930;2024-03-23T06:07:53;9.60;99.90
13322;DHT22;6730;46.248;6.930;2024-03-23T06:10:18;8.90;99.90
13322;DHT22;6730;46.248;6.930;2024-03-23T06:12:46;9.00;99.90
13322;DHT22;6730;46.248;6.930;2024-03-23T06:15:12;9.40;99.90
13322;DHT22;6730;46.248;6.930;2024-03-23T06:17:38;9.50;99.90
13322;DHT22;6730;46.248;6.930;2024-03-23T06:20:04;9.70;99.90
13322;DHT22;6730;46.248;6.930;2024-03-23T06:22:31;9.80;99.90
13322;DHT22;6730;46.248;6.930;2024-03-23T06:24:57;9.80;99.90
13322;DHT22;6730;46.248;6.930;2024-03-23T06:27:23;9.80;99.90
13322;DHT22;6730;46.248;6.930;2024-03-23T06:29:48;9.50;99.90
13322;DHT22;6730;46.248;6.930;2024-03-23T06:32:14;9.10;99.90
13322;DHT22;6730;46.248;6.930;2024-03-23T06:34:43;8.50;99.90
13322;DHT22;6730;46.248;6.930;2024-03-23T06:37:08;8.40;99.90
13322;DHT22;6730;46.248;6.930;2024-03-23T06:39:36;8.50;99.90
13322;DHT22;6730;46.248;6.930;2024-03-23T06:42:02;8.40;99.90
13322;DHT22;6730;46.248;6.930;2024-03-23T06:44:28;8.20;99.90
13322;DHT22;6730;46.248;6.930;2024-03-23T06:46:54;8.20;99.90
13322;DHT22;6730;46.248;6.930;2024-03-23T06:49:20;8.70;99.90
13322;DHT22;6730;46.248;6.930;2024-03-23T06:51:46;9.30;99.90
13322;DHT22;6730;46.248;6.930;2024-03-23T06:54:12;9.70;99.90
13322;DHT22;6730;46.248;6.930;2024-03-23T06:56:37;9.80;99.90
13322;DHT22;6730;46.248;6.930;2024-03-23T06:59:03;10.10;99.90
13322;DHT22;6730;46.248;6.930;2024-03-23T07:01:29;10.40;99.90
13322;DHT22;6730;46.248;6.930;2024-03-23T07:03:55;10.50;99.90
13322;DHT22;6730;46.248;6.930;2024-03-23T07:06:21;10.70;99.90
13322;DHT22;6730;46.248;6.930;2024-03-23T07:08:47;10.40;99.90
13322;DHT22;6730;46.248;6.930;2024-03-23T07:11:18;9.80;99.90
13322;DHT22;6730;46.248;6.930;2024-03-23T07:13:43;9.40;99.90
13322;DHT22;6730;46.248;6.930;2024-03-23T07:16:09;9.40;99.90
13322;DHT22;6730;46.248;6.930;2024-03-23T07:18:34;9.00;99.90
13322;DHT22;6730;46.248;6.930;2024-03-23T07:21:00;8.70;99.90
13322;DHT22;6730;46.248;6.930;2024-03-23T07:23:26;8.70;99.90
13322;DHT22;6730;46.248;6.930;2024-03-23T07:25:58;8.60;99.90
13322;DHT22;6730;46.248;6.930;2024-03-23T07:28:24;8.50;99.90
13322;DHT22;6730;46.248;6.930;2024-03-23T07:31:04;8.70;99.90
13322;DHT22;6730;46.248;6.930;2024-03-23T07:33:30;8.80;99.90
13322;DHT22;6730;46.248;6.930;2024-03-23T07:35:56;8.90;99.90
13322;DHT22;6730;46.248;6.930;2024-03-23T07:38:21;8.90;99.90
13322;DHT22;6730;46.248;6.930;2024-03-23T07:40:47;9.30;99.90
13322;DHT22;6730;46.248;6.930;2024-03-23T07:43:15;9.60;99.90
13322;DHT22;6730;46.248;6.930;2024-03-23T07:45:41;10.00;99.90
13322;DHT22;6730;46.248;6.930;2024-03-23T07:48:07;9.70;99.90
13322;DHT22;6730;46.248;6.930;2024-03-23T07:50:32;9.80;99.90
13322;DHT22;6730;46.248;6.930;2024-03-23T07:52:58;9.70;99.90
13322;DHT22;6730;46.248;6.930;2024-03-23T07:55:23;9.50;99.90
13322;DHT22;6730;46.248;6.930;2024-03-23T07:57:51;9.50;99.90
13322;DHT22;6730;46.248;6.930;2024-03-23T08:00:17;10.00;99.90
13322;DHT22;6730;46.248;6.930;2024-03-23T08:02:43;10.30;99.90
13322;DHT22;6730;46.248;6.930;2024-03-23T08:05:08;10.30;99.90
13322;DHT22;6730;46.248;6.930;2024-03-23T08:07:34;9.60;99.90
13322;DHT22;6730;46.248;6.930;2024-03-23T08:10:00;9.30;99.90
13322;DHT22;6730;46.248;6.930;2024-03-23T08:12:28;9.10;99.90
13322;DHT22;6730;46.248;6.930;2024-03-23T08:14:54;9.00;99.90
13322;DHT22;6730;46.248;6.930;2024-03-23T08:17:20;9.20;99.90
13322;DHT22;6730;46.248;6.930;2024-03-23T08:19:45;9.30;99.90
13322;DHT22;6730;46.248;6.930;2024-03-23T08:22:11;9.50;99.90
13322;DHT22;6730;46.248;6.930;2024-03-23T08:24:36;9.70;99.90
13322;DHT22;6730;46.248;6.930;2024-03-23T08:27:02;9.70;99.90
13322;DHT22;6730;46.248;6.930;2024-03-23T08:29:30;9.20;99.90
13322;DHT22;6730;46.248;6.930;2024-03-23T08:31:55;9.40;99.90
13322;DHT22;6730;46.248;6.930;2024-03-23T08:34:21;9.70;99.90
13322;DHT22;6730;46.248;6.930;2024-03-23T08:36:47;9.80;99.90
13322;DHT22;6730;46.248;6.930;2024-03-23T08:39:12;9.70;99.90
13322;DHT22;6730;46.248;6.930;2024-03-23T08:41:38;9.40;99.90
13322;DHT22;6730;46.248;6.930;2024-03-23T08:44:04;9.30;99.90
13322;DHT22;6730;46.248;6.930;2024-03-23T08:46:30;9.30;99.90
13322;DHT22;6730;46.248;6.930;2024-03-23T08:48:55;8.90;99.90
13322;DHT22;6730;46.248;6.930;2024-03-23T08:51:21;8.50;99.90
13322;DHT22;6730;46.248;6.930;2024-03-23T08:53:46;8.40;99.90
13322;DHT22;6730;46.248;6.930;2024-03-23T08:56:12;8.40;99.90
13322;DHT22;6730;46.248;6.930;2024-03-23T08:58:38;8.80;99.90
13322;DHT22;6730;46.248;6.930;2024-03-23T09:01:09;9.10;99.90
13322;DHT22;6730;46.248;6.930;2024-03-23T09:03:36;9.30;99.90
13322;DHT22;6730;46.248;6.930;2024-03-23T09:06:06;9.30;99.90
13322;DHT22;6730;46.248;6.930;2024-03-23T09:08:32;9.30;99.90
13322;DHT22;6730;46.248;6.930;2024-03-23T09:11:04;9.10;99.90
13322;DHT22;6730;46.248;6.930;2024-03-23T09:13:32;9.00;99.90
13322;DHT22;6730;46.248;6.930;2024-03-23T09:15:58;8.90;99.90
13322;DHT22;6730;46.248;6.930;2024-03-23T09:18:23;8.90;99.90
13322;DHT22;6730;46.248;6.930;2024-03-23T09:20:49;8.90;99.90
13322;DHT22;6730;46.248;6.930;2024-03-23T09:23:15;9.00;99.90
13322;DHT22;6730;46.248;6.930;2024-03-23T09:25:40;8.70;99.90
13322;DHT22;6730;46.248;6.930;2024-03-23T09:28:07;8.60;99.90
13322;DHT22;6730;46.248;6.930;2024-03-23T09:30:34;8.70;99.90
13322;DHT22;6730;46.248;6.930;2024-03-23T09:33:00;8.80;99.90
13322;DHT22;6730;46.248;6.930;2024-03-23T09:35:26;9.20;99.90
13322;DHT22;6730;46.248;6.930;2024-03-23T09:37:52;9.20;99.90
13322;DHT22;6730;46.248;6.930;2024-03-23T09:40:18;8.70;99.90
13322;DHT22;6730;46.248;6.930;2024-03-23T09:42:52;8.30;99.90
13322;DHT22;6730;46.248;6.930;2024-03-23T09:45:21;8.30;99.90
13322;DHT22;6730;46.248;6.930;2024-03-23T09:47:48;8.50;99.90
13322;DHT22;6730;46.248;6.930;2024-03-23T09:50:14;8.70;99.90
13322;DHT22;6730;46.248;6.930;2024-03-23T09:52:40;8.80;99.90
13322;DHT22;6730;46.248;6.930;2024-03-23T09:55:08;8.80;99.90
13322;DHT22;6730;46.248;6.930;2024-03-23T09:57:35;8.80;99.90
13322;DHT22;6730;46.248;6.930;2024-03-23T10:00:01;8.40;99.90
13322;DHT22;6730;46.248;6.930;2024-03-23T10:02:28;8.30;99.90
13322;DHT22;6730;46.248;6.930;2024-03-23T10:04:54;9.00;99.90
13322;DHT22;6730;46.248;6.930;2024-03-23T10:07:20;10.00;99.90
13322;DHT22;6730;46.248;6.930;2024-03-23T10:09:47;10.50;99.90
13322;DHT22;6730;46.248;6.930;2024-03-23T10:12:15;10.70;99.90
13322;DHT22;6730;46.248;6.930;2024-03-23T10:14:41;10.40;99.90
13322;DHT22;6730;46.248;6.930;2024-03-23T10:17:18;10.10;99.90
13322;DHT22;6730;46.248;6.930;2024-03-23T10:19:48;10.10;99.90
13322;DHT22;6730;46.248;6.930;2024-03-23T10:24:44;10.50;99.90
13322;DHT22;6730;46.248;6.930;2024-03-23T10:27:15;10.20;99.90
13322;DHT22;6730;46.248;6.930;2024-03-23T10:29:43;9.20;99.90
13322;DHT22;6730;46.248;6.930;2024-03-23T10:32:15;9.30;99.90
13322;DHT22;6730;46.248;6.930;2024-03-23T10:34:41;10.10;99.90
13322;DHT22;6730;46.248;6.930;2024-03-23T10:37:08;10.30;99.90
13322;DHT22;6730;46.248;6.930;2024-03-23T10:39:39;10.10;99.90
13322;DHT22;6730;46.248;6.930;2024-03-23T10:42:06;9.80;99.90
13322;DHT22;6730;46.248;6.930;2024-03-23T10:44:33;9.40;99.90
13322;DHT22;6730;46.248;6.930;2024-03-23T10:47:00;9.20;99.90
13322;DHT22;6730;46.248;6.930;2024-03-23T10:49:31;9.00;99.90
13322;DHT22;6730;46.248;6.930;2024-03-23T10:51:58;9.00;99.90
13322;DHT22;6730;46.248;6.930;2024-03-23T10:54:28;8.70;99.90
13322;DHT22;6730;46.248;6.930;2024-03-23T10:59:33;9.10;99.90
13322;DHT22;6730;46.248;6.930;2024-03-23T11:02:00;9.20;99.90
13322;DHT22;6730;46.248;6.930;2024-03-23T11:04:36;9.30;99.90
13322;DHT22;6730;46.248;6.930;2024-03-23T11:09:50;9.50;99.90
13322;DHT22;6730;46.248;6.930;2024-03-23T11:14:51;9.60;99.90
13322;DHT22;6730;46.248;6.930;2024-03-23T11:17:23;9.70;99.90
13322;DHT22;6730;46.248;6.930;2024-03-23T11:22:46;9.10;99.90
13322;DHT22;6730;46.248;6.930;2024-03-23T11:25:21;8.80;99.90
13322;DHT22;6730;46.248;6.930;2024-03-23T11:27:52;8.80;99.90
13322;DHT22;6730;46.248;6.930;2024-03-23T11:32:49;8.90;99.90
13322;DHT22;6730;46.248;6.930;2024-03-23T11:40:30;9.00;99.90
13322;DHT22;6730;46.248;6.930;2024-03-23T11:43:01;9.00;99.90
13322;DHT22;6730;46.248;6.930;2024-03-23T11:45:28;9.00;99.90
13322;DHT22;6730;46.248;6.930;2024-03-23T11:48:07;9.40;99.90
13322;DHT22;6730;46.248;6.930;2024-03-23T11:50:35;9.40;99.90
13322;DHT22;6730;46.248;6.930;2024-03-23T11:53:17;9.40;99.90
13322;DHT22;6730;46.248;6.930;2024-03-23T11:58:19;9.20;99.90
13322;DHT22;6730;46.248;6.930;2024-03-23T12:00:59;9.00;99.90
13322;DHT22;6730;46.248;6.930;2024-03-23T12:03:27;9.20;99.90
13322;DHT22;6730;46.248;6.930;2024-03-23T12:06:00;9.40;99.90
13322;DHT22;6730;46.248;6.930;2024-03-23T12:08:32;9.40;99.90
13322;DHT22;6730;46.248;6.930;2024-03-23T12:11:08;9.40;99.90
13322;DHT22;6730;46.248;6.930;2024-03-23T12:13:37;9.50;99.90
13322;DHT22;6730;46.248;6.930;2024-03-23T12:16:14;9.40;99.90
13322;DHT22;6730;46.248;6.930;2024-03-23T12:18:44;9.20;99.90
13322;DHT22;6730;46.248;6.930;2024-03-23T12:21:10;9.50;99.90
13322;DHT22;6730;46.248;6.930;2024-03-23T12:23:38;9.40;99.90
13322;DHT22;6730;46.248;6.930;2024-03-23T12:26:04;9.50;99.90
13322;DHT22;6730;46.248;6.930;2024-03-23T12:28:30;9.40;99.90
13322;DHT22;6730;46.248;6.930;2024-03-23T12:30:55;9.50;99.90
13322;DHT22;6730;46.248;6.930;2024-03-23T12:33:21;9.50;99.90
13322;DHT22;6730;46.248;6.930;2024-03-23T12:35:48;9.30;99.90
13322;DHT22;6730;46.248;6.930;2024-03-23T12:38:13;9.20;99.90
13322;DHT22;6730;46.248;6.930;2024-03-23T12:40:39;9.30;99.90
13322;DHT22;6730;46.248;6.930;2024-03-23T12:43:06;9.20;99.90
13322;DHT22;6730;46.248;6.930;2024-03-23T12:45:33;9.20;99.90
13322;DHT22;6730;46.248;6.930;2024-03-23T12:47:58;9.20;99.90
13322;DHT22;6730;46.248;6.930;2024-03-23T12:50:24;9.20;99.90
13322;DHT22;6730;46.248;6.930;2024-03-23T12:52:50;9.20;99.90
13322;DHT22;6730;46.248;6.930;2024-03-23T12:55:16;9.20;99.90
13322;DHT22;6730;46.248;6.930;2024-03-23T12:57:42;9.00;99.90
13322;DHT22;6730;46.248;6.930;2024-03-23T13:00:08;9.10;99.90
13322;DHT22;6730;46.248;6.930;2024-03-23T13:02:37;9.20;99.90
13322;DHT22;6730;46.248;6.930;2024-03-23T13:05:04;9.20;99.90
13322;DHT22;6730;46.248;6.930;2024-03-23T13:07:30;9.20;99.90
13322;DHT22;6730;46.248;6.930;2024-03-23T13:09:56;9.10;99.90
13322;DHT22;6730;46.248;6.930;2024-03-23T13:12:22;9.00;99.90
13322;DHT22;6730;46.248;6.930;2024-03-23T13:14:48;9.10;99.90
13322;DHT22;6730;46.248;6.930;2024-03-23T13:17:14;9.10;99.90
13322;DHT22;6730;46.248;6.930;2024-03-23T13:19:40;9.00;99.90
13322;DHT22;6730;46.248;6.930;2024-03-23T13:22:06;9.00;99.90
13322;DHT22;6730;46.248;6.930;2024-03-23T13:24:32;9.20;99.90
13322;DHT22;6730;46.248;6.930;2024-03-23T13:26:58;9.40;99.90
13322;DHT22;6730;46.248;6.930;2024-03-23T13:29:24;9.50;99.90
13322;DHT22;6730;46.248;6.930;2024-03-23T13:31:51;9.50;99.90
13322;DHT22;6730;46.248;6.930;2024-03-23T13:34:17;9.80;99.90
13322;DHT22;6730;46.248;6.930;2024-03-23T13:36:47;9.80;99.90
13322;DHT22;6730;46.248;6.930;2024-03-23T13:39:14;9.90;99.90
13322;DHT22;6730;46.248;6.930;2024-03-23T13:41:44;10.00;99.90
13322;DHT22;6730;46.248;6.930;2024-03-23T13:44:13;9.70;99.90
13322;DHT22;6730;46.248;6.930;2024-03-23T13:46:41;9.70;99.90
13322;DHT22;6730;46.248;6.930;2024-03-23T13:49:28;9.80;99.90
13322;DHT22;6730;46.248;6.930;2024-03-23T13:51:55;9.80;99.90
13322;DHT22;6730;46.248;6.930;2024-03-23T13:54:22;10.10;99.90
13322;DHT22;6730;46.248;6.930;2024-03-23T13:56:50;9.90;99.90
13322;DHT22;6730;46.248;6.930;2024-03-23T13:59:16;9.50;99.90
13322;DHT22;6730;46.248;6.930;2024-03-23T14:01:42;9.50;99.90
13322;DHT22;6730;46.248;6.930;2024-03-23T14:04:08;9.40;99.90
13322;DHT22;6730;46.248;6.930;2024-03-23T14:06:34;9.30;99.90
13322;DHT22;6730;46.248;6.930;2024-03-23T14:09:00;9.30;99.90
13322;DHT22;6730;46.248;6.930;2024-03-23T14:11:25;9.20;99.90
13322;DHT22;6730;46.248;6.930;2024-03-23T14:13:52;9.20;99.90
13322;DHT22;6730;46.248;6.930;2024-03-23T14:16:18;9.20;99.90
13322;DHT22;6730;46.248;6.930;2024-03-23T14:18:48;9.20;99.90
13322;DHT22;6730;46.248;6.930;2024-03-23T14:21:14;9.10;99.90
13322;DHT22;6730;46.248;6.930;2024-03-23T14:23:39;9.10;99.90
13322;DHT22;6730;46.248;6.930;2024-03-23T14:26:06;9.10;99.90
13322;DHT22;6730;46.248;6.930;2024-03-23T14:28:32;9.10;99.90
13322;DHT22;6730;46.248;6.930;2024-03-23T14:30:58;9.10;99.90
13322;DHT22;6730;46.248;6.930;2024-03-23T14:33:24;9.00;99.90
13322;DHT22;6730;46.248;6.930;2024-03-23T14:35:54;9.00;99.90
13322;DHT22;6730;46.248;6.930;2024-03-23T14:38:21;9.00;99.90
13322;DHT22;6730;46.248;6.930;2024-03-23T14:40:46;9.00;99.90
13322;DHT22;6730;46.248;6.930;2024-03-23T14:43:12;9.10;99.90
13322;DHT22;6730;46.248;6.930;2024-03-23T14:46:06;9.10;99.90
13322;DHT22;6730;46.248;6.930;2024-03-23T14:48:33;9.20;99.90
13322;DHT22;6730;46.248;6.930;2024-03-23T14:50:59;9.20;99.90
13322;DHT22;6730;46.248;6.930;2024-03-23T14:53:26;9.20;99.90
13322;DHT22;6730;46.248;6.930;2024-03-23T14:55:55;9.20;99.90
13322;DHT22;6730;46.248;6.930;2024-03-23T14:58:21;9.20;99.90
13322;DHT22;6730;46.248;6.930;2024-03-23T15:00:48;9.40;99.90
13322;DHT22;6730;46.248;6.930;2024-03-23T15:03:14;9.60;99.90
13322;DHT22;6730;46.248;6.930;2024-03-23T15:05:40;9.60;99.90
13322;DHT22;6730;46.248;6.930;2024-03-23T15:08:06;9.60;99.90
13322;DHT22;6730;46.248;6.930;2024-03-23T15:10:33;9.40;99.90
13322;DHT22;6730;46.248;6.930;2024-03-23T15:12:58;9.30;99.90
13322;DHT22;6730;46.248;6.930;2024-03-23T15:15:24;9.30;99.90
13322;DHT22;6730;46.248;6.930;2024-03-23T15:17:50;9.30;99.90
13322;DHT22;6730;46.248;6.930;2024-03-23T15:20:16;9.40;99.90
13322;DHT22;6730;46.248;6.930;2024-03-23T15:22:42;9.50;99.90
13322;DHT22;6730;46.248;6.930;2024-03-23T15:25:08;9.70;99.90
13322;DHT22;6730;46.248;6.930;2024-03-23T15:27:34;9.80;99.90
13322;DHT22;6730;46.248;6.930;2024-03-23T15:29:59;9.60;99.90
13322;DHT22;6730;46.248;6.930;2024-03-23T15:32:25;9.50;99.90
13322;DHT22;6730;46.248;6.930;2024-03-23T15:34:50;9.50;99.90
13322;DHT22;6730;46.248;6.930;2024-03-23T15:37:17;9.30;99.90
13322;DHT22;6730;46.248;6.930;2024-03-23T15:39:43;9.30;99.90
13322;DHT22;6730;46.248;6.930;2024-03-23T15:42:09;9.50;99.90
13322;DHT22;6730;46.248;6.930;2024-03-23T15:44:35;9.50;99.90
13322;DHT22;6730;46.248;6.930;2024-03-23T15:47:01;9.00;99.90
13322;DHT22;6730;46.248;6.930;2024-03-23T15:49:27;9.10;99.90
13322;DHT22;6730;46.248;6.930;2024-03-23T15:51:52;9.30;99.90
13322;DHT22;6730;46.248;6.930;2024-03-23T15:54:19;9.30;99.90
13322;DHT22;6730;46.248;6.930;2024-03-23T15:56:44;9.10;99.90
13322;DHT22;6730;46.248;6.930;2024-03-23T15:59:10;9.10;99.90
13322;DHT22;6730;46.248;6.930;2024-03-23T16:01:36;9.00;99.90
13322;DHT22;6730;46.248;6.930;2024-03-23T16:04:03;9.00;99.90
13322;DHT22;6730;46.248;6.930;2024-03-23T16:06:28;9.20;99.90
13322;DHT22;6730;46.248;6.930;2024-03-23T16:08:54;9.20;99.90
13322;DHT22;6730;46.248;6.930;2024-03-23T16:11:20;9.30;99.90
13322;DHT22;6730;46.248;6.930;2024-03-23T16:13:45;9.30;99.90
13322;DHT22;6730;46.248;6.930;2024-03-23T16:16:13;9.40;99.90
13322;DHT22;6730;46.248;6.930;2024-03-23T16:18:39;9.40;99.90
13322;DHT22;6730;46.248;6.930;2024-03-23T16:21:06;9.20;99.90
13322;DHT22;6730;46.248;6.930;2024-03-23T16:23:33;9.30;99.90
13322;DHT22;6730;46.248;6.930;2024-03-23T16:26:00;9.00;99.20
13322;DHT22;6730;46.248;6.930;2024-03-23T16:28:30;8.90;99.90
13322;DHT22;6730;46.248;6.930;2024-03-23T16:33:22;8.70;99.90
13322;DHT22;6730;46.248;6.930;2024-03-23T16:36:02;8.60;99.90
13322;DHT22;6730;46.248;6.930;2024-03-23T16:38:30;8.70;99.90
13322;DHT22;6730;46.248;6.930;2024-03-23T16:41:06;7.90;99.90
13322;DHT22;6730;46.248;6.930;2024-03-23T16:43:33;7.90;99.80
13322;DHT22;6730;46.248;6.930;2024-03-23T16:46:04;8.20;99.90
13322;DHT22;6730;46.248;6.930;2024-03-23T16:48:31;8.30;99.90
13322;DHT22;6730;46.248;6.930;2024-03-23T16:50:58;8.20;99.90
13322;DHT22;6730;46.248;6.930;2024-03-23T16:53:25;8.10;99.60
13322;DHT22;6730;46.248;6.930;2024-03-23T16:56:04;7.70;99.90
13322;DHT22;6730;46.248;6.930;2024-03-23T16:58:32;7.70;99.80
13322;DHT22;6730;46.248;6.930;2024-03-23T17:01:04;7.90;99.90
13322;DHT22;6730;46.248;6.930;2024-03-23T17:03:33;8.20;99.90
13322;DHT22;6730;46.248;6.930;2024-03-23T17:06:05;8.50;99.90
13322;DHT22;6730;46.248;6.930;2024-03-23T17:08:32;8.00;99.30
13322;DHT22;6730;46.248;6.930;2024-03-23T17:11:01;7.60;99.40
13322;DHT22;6730;46.248;6.930;2024-03-23T17:13:28;7.50;99.70